sensor_id;sensor_type;location;lat;lon;timestamp;P1;durP1;ratioP1;P2;durP2;ratioP2
75691;SDS011;64307;52.508;6.090;2023-04-25T00:00:46;12.50;;;2.85;;
75691;SDS011;64307;52.508;6.090;2023-04-25T00:03:11;18.37;;;3.10;;
75691;SDS011;64307;52.508;6.090;2023-04-25T00:05:36;12.45;;;2.35;;
75691;SDS011;64307;52.508;6.090;2023-04-25T00:08:03;13.60;;;2.45;;
75691;SDS011;64307;52.508;6.090;2023-04-25T00:10:28;16.13;;;2.42;;
75691;SDS011;64307;52.508;6.090;2023-04-25T00:12:54;15.95;;;2.67;;
75691;SDS011;64307;52.508;6.090;2023-04-25T00:15:20;12.35;;;2.20;;
75691;SDS011;64307;52.508;6.090;2023-04-25T00:17:46;10.70;;;2.30;;
75691;SDS011;64307;52.508;6.090;2023-04-25T00:20:12;12.57;;;2.30;;
75691;SDS011;64307;52.508;6.090;2023-04-25T00:22:37;16.38;;;2.10;;
75691;SDS011;64307;52.508;6.090;2023-04-25T00:25:05;11.30;;;1.85;;
75691;SDS011;64307;52.508;6.090;2023-04-25T00:27:31;15.13;;;2.30;;
75691;SDS011;64307;52.508;6.090;2023-04-25T00:29:57;10.40;;;1.98;;
75691;SDS011;64307;52.508;6.090;2023-04-25T00:32:22;13.07;;;1.90;;
75691;SDS011;64307;52.508;6.090;2023-04-25T00:34:47;15.10;;;2.27;;
75691;SDS011;64307;52.508;6.090;2023-04-25T00:37:13;13.85;;;2.30;;
75691;SDS011;64307;52.508;6.090;2023-04-25T00:39:38;13.25;;;2.35;;
75691;SDS011;64307;52.508;6.090;2023-04-25T00:42:03;13.07;;;2.08;;
75691;SDS011;64307;52.508;6.090;2023-04-25T00:44:30;10.35;;;2.08;;
75691;SDS011;64307;52.508;6.090;2023-04-25T00:46:57;11.68;;;2.22;;
75691;SDS011;64307;52.508;6.090;2023-04-25T00:49:22;16.23;;;2.10;;
75691;SDS011;64307;52.508;6.090;2023-04-25T00:51:47;14.45;;;2.38;;
75691;SDS011;64307;52.508;6.090;2023-04-25T00:54:13;12.60;;;2.35;;
75691;SDS011;64307;52.508;6.090;2023-04-25T00:56:39;10.85;;;1.88;;
75691;SDS011;64307;52.508;6.090;2023-04-25T00:59:04;12.18;;;2.47;;
75691;SDS011;64307;52.508;6.090;2023-04-25T01:01:30;11.82;;;2.35;;
75691;SDS011;64307;52.508;6.090;2023-04-25T01:03:56;15.85;;;3.00;;
75691;SDS011;64307;52.508;6.090;2023-04-25T01:06:24;14.25;;;2.05;;
75691;SDS011;64307;52.508;6.090;2023-04-25T01:08:49;15.48;;;2.58;;
75691;SDS011;64307;52.508;6.090;2023-04-25T01:11:16;10.68;;;2.45;;
75691;SDS011;64307;52.508;6.090;2023-04-25T01:13:41;14.77;;;2.17;;
75691;SDS011;64307;52.508;6.090;2023-04-25T01:16:07;16.67;;;3.15;;
75691;SDS011;64307;52.508;6.090;2023-04-25T01:18:32;15.73;;;2.70;;
75691;SDS011;64307;52.508;6.090;2023-04-25T01:21:05;19.30;;;2.50;;
75691;SDS011;64307;52.508;6.090;2023-04-25T01:23:33;17.75;;;2.10;;
75691;SDS011;64307;52.508;6.090;2023-04-25T01:25:59;10.23;;;2.60;;
75691;SDS011;64307;52.508;6.090;2023-04-25T01:28:25;15.38;;;1.92;;
75691;SDS011;64307;52.508;6.090;2023-04-25T01:30:51;7.82;;;1.95;;
75691;SDS011;64307;52.508;6.090;2023-04-25T01:33:17;12.27;;;1.80;;
75691;SDS011;64307;52.508;6.090;2023-04-25T01:35:45;8.63;;;1.42;;
75691;SDS011;64307;52.508;6.090;2023-04-25T01:38:12;7.32;;;1.52;;
75691;SDS011;64307;52.508;6.090;2023-04-25T01:40:38;10.32;;;1.85;;
75691;SDS011;64307;52.508;6.090;2023-04-25T01:43:05;12.05;;;1.98;;
75691;SDS011;64307;52.508;6.090;2023-04-25T01:45:31;10.88;;;1.70;;
75691;SDS011;64307;52.508;6.090;2023-04-25T01:47:57;11.68;;;2.30;;
75691;SDS011;64307;52.508;6.090;2023-04-25T01:50:24;9.57;;;1.95;;
75691;SDS011;64307;52.508;6.090;2023-04-25T01:52:50;9.15;;;1.52;;
75691;SDS011;64307;52.508;6.090;2023-04-25T01:55:17;6.97;;;1.52;;
75691;SDS011;64307;52.508;6.090;2023-04-25T01:57:42;8.45;;;1.70;;
75691;SDS011;64307;52.508;6.090;2023-04-25T02:00:08;11.25;;;1.70;;
75691;SDS011;64307;52.508;6.090;2023-04-25T02:02:34;7.47;;;1.83;;
75691;SDS011;64307;52.508;6.090;2023-04-25T02:05:01;6.55;;;1.58;;
75691;SDS011;64307;52.508;6.090;2023-04-25T02:07:26;9.80;;;1.40;;
75691;SDS011;64307;52.508;6.090;2023-04-25T02:09:52;9.50;;;1.60;;
75691;SDS011;64307;52.508;6.090;2023-04-25T02:12:17;10.50;;;1.60;;
75691;SDS011;64307;52.508;6.090;2023-04-25T02:14:43;9.35;;;2.08;;
75691;SDS011;64307;52.508;6.090;2023-04-25T02:17:08;8.68;;;1.50;;
75691;SDS011;64307;52.508;6.090;2023-04-25T02:19:33;10.63;;;1.90;;
75691;SDS011;64307;52.508;6.090;2023-04-25T02:21:59;5.68;;;1.50;;
75691;SDS011;64307;52.508;6.090;2023-04-25T02:24:24;7.88;;;1.40;;
75691;SDS011;64307;52.508;6.090;2023-04-25T02:26:49;7.50;;;1.50;;
75691;SDS011;64307;52.508;6.090;2023-04-25T02:29:15;9.65;;;2.00;;
75691;SDS011;64307;52.508;6.090;2023-04-25T02:31:41;8.13;;;2.17;;
75691;SDS011;64307;52.508;6.090;2023-04-25T02:34:06;9.85;;;1.98;;
75691;SDS011;64307;52.508;6.090;2023-04-25T02:36:32;11.05;;;2.33;;
75691;SDS011;64307;52.508;6.090;2023-04-25T02:38:59;7.53;;;1.35;;
75691;SDS011;64307;52.508;6.090;2023-04-25T02:41:25;9.25;;;1.85;;
75691;SDS011;64307;52.508;6.090;2023-04-25T02:43:51;12.95;;;2.03;;
75691;SDS011;64307;52.508;6.090;2023-04-25T02:46:16;6.68;;;1.30;;
75691;SDS011;64307;52.508;6.090;2023-04-25T02:48:41;11.93;;;2.10;;
75691;SDS011;64307;52.508;6.090;2023-04-25T02:51:06;10.37;;;1.87;;
75691;SDS011;64307;52.508;6.090;2023-04-25T02:53:32;8.23;;;1.73;;
75691;SDS011;64307;52.508;6.090;2023-04-25T02:55:57;9.60;;;1.20;;
75691;SDS011;64307;52.508;6.090;2023-04-25T02:58:24;9.70;;;1.67;;
75691;SDS011;64307;52.508;6.090;2023-04-25T03:00:49;9.50;;;1.92;;
75691;SDS011;64307;52.508;6.090;2023-04-25T03:03:15;13.00;;;1.83;;
75691;SDS011;64307;52.508;6.090;2023-04-25T03:05:42;9.38;;;1.35;;
75691;SDS011;64307;52.508;6.090;2023-04-25T03:08:08;9.35;;;1.48;;
75691;SDS011;64307;52.508;6.090;2023-04-25T03:10:33;9.27;;;1.67;;
75691;SDS011;64307;52.508;6.090;2023-04-25T03:12:59;8.30;;;1.65;;
75691;SDS011;64307;52.508;6.090;2023-04-25T03:15:24;6.63;;;1.23;;
75691;SDS011;64307;52.508;6.090;2023-04-25T03:17:49;10.30;;;1.40;;
75691;SDS011;64307;52.508;6.090;2023-04-25T03:20:15;11.07;;;2.05;;
75691;SDS011;64307;52.508;6.090;2023-04-25T03:22:40;12.55;;;1.75;;
75691;SDS011;64307;52.508;6.090;2023-04-25T03:25:06;10.95;;;1.52;;
75691;SDS011;64307;52.508;6.090;2023-04-25T03:27:32;16.10;;;2.20;;
75691;SDS011;64307;52.508;6.090;2023-04-25T03:29:57;13.07;;;1.52;;
75691;SDS011;64307;52.508;6.090;2023-04-25T03:32:22;12.73;;;1.30;;
75691;SDS011;64307;52.508;6.090;2023-04-25T03:34:48;11.32;;;2.03;;
75691;SDS011;64307;52.508;6.090;2023-04-25T03:37:13;11.80;;;1.80;;
75691;SDS011;64307;52.508;6.090;2023-04-25T03:39:38;10.90;;;1.60;;
75691;SDS011;64307;52.508;6.090;2023-04-25T03:42:03;13.52;;;1.85;;
75691;SDS011;64307;52.508;6.090;2023-04-25T03:44:29;12.02;;;1.65;;
75691;SDS011;64307;52.508;6.090;2023-04-25T03:46:54;8.95;;;1.52;;
75691;SDS011;64307;52.508;6.090;2023-04-25T03:49:20;8.57;;;1.75;;
75691;SDS011;64307;52.508;6.090;2023-04-25T03:51:45;13.13;;;1.95;;
75691;SDS011;64307;52.508;6.090;2023-04-25T03:54:10;12.82;;;1.75;;
75691;SDS011;64307;52.508;6.090;2023-04-25T03:56:36;13.53;;;1.70;;
75691;SDS011;64307;52.508;6.090;2023-04-25T03:59:01;16.48;;;2.13;;
75691;SDS011;64307;52.508;6.090;2023-04-25T04:01:27;12.82;;;1.63;;
75691;SDS011;64307;52.508;6.090;2023-04-25T04:03:52;8.55;;;1.02;;
75691;SDS011;64307;52.508;6.090;2023-04-25T04:06:18;7.45;;;1.30;;
75691;SDS011;64307;52.508;6.090;2023-04-25T04:08:45;8.32;;;1.35;;
75691;SDS011;64307;52.508;6.090;2023-04-25T04:11:11;9.95;;;1.63;;
75691;SDS011;64307;52.508;6.090;2023-04-25T04:13:36;10.65;;;2.03;;
75691;SDS011;64307;52.508;6.090;2023-04-25T04:16:02;9.85;;;1.15;;
75691;SDS011;64307;52.508;6.090;2023-04-25T04:18:29;8.95;;;1.77;;
75691;SDS011;64307;52.508;6.090;2023-04-25T04:20:54;10.48;;;1.23;;
75691;SDS011;64307;52.508;6.090;2023-04-25T04:23:19;7.25;;;1.05;;
75691;SDS011;64307;52.508;6.090;2023-04-25T04:25:45;7.55;;;1.10;;
75691;SDS011;64307;52.508;6.090;2023-04-25T04:30:39;10.00;;;1.42;;
75691;SDS011;64307;52.508;6.090;2023-04-25T04:33:05;9.32;;;1.35;;
75691;SDS011;64307;52.508;6.090;2023-04-25T04:35:33;6.82;;;0.80;;
75691;SDS011;64307;52.508;6.090;2023-04-25T04:37:58;12.38;;;2.20;;
75691;SDS011;64307;52.508;6.090;2023-04-25T04:40:24;9.57;;;1.00;;
75691;SDS011;64307;52.508;6.090;2023-04-25T04:42:50;9.93;;;1.73;;
75691;SDS011;64307;52.508;6.090;2023-04-25T04:45:15;7.05;;;1.60;;
75691;SDS011;64307;52.508;6.090;2023-04-25T04:47:41;13.38;;;1.50;;
75691;SDS011;64307;52.508;6.090;2023-04-25T04:50:08;8.73;;;1.48;;
75691;SDS011;64307;52.508;6.090;2023-04-25T04:52:34;7.68;;;1.20;;
75691;SDS011;64307;52.508;6.090;2023-04-25T04:55:01;12.43;;;1.33;;
75691;SDS011;64307;52.508;6.090;2023-04-25T04:57:28;8.30;;;1.38;;
75691;SDS011;64307;52.508;6.090;2023-04-25T04:59:53;13.85;;;1.35;;
75691;SDS011;64307;52.508;6.090;2023-04-25T05:02:19;8.93;;;1.63;;
75691;SDS011;64307;52.508;6.090;2023-04-25T05:04:44;3.70;;;1.00;;
75691;SDS011;64307;52.508;6.090;2023-04-25T05:07:10;8.98;;;1.40;;
75691;SDS011;64307;52.508;6.090;2023-04-25T05:09:36;7.15;;;1.45;;
75691;SDS011;64307;52.508;6.090;2023-04-25T05:12:01;5.93;;;1.33;;
75691;SDS011;64307;52.508;6.090;2023-04-25T05:14:29;5.60;;;1.42;;
75691;SDS011;64307;52.508;6.090;2023-04-25T05:16:54;9.70;;;1.40;;
75691;SDS011;64307;52.508;6.090;2023-04-25T05:19:20;7.20;;;1.15;;
75691;SDS011;64307;52.508;6.090;2023-04-25T05:21:45;12.10;;;1.63;;
75691;SDS011;64307;52.508;6.090;2023-04-25T05:24:10;6.72;;;1.67;;
75691;SDS011;64307;52.508;6.090;2023-04-25T05:26:36;8.48;;;0.93;;
75691;SDS011;64307;52.508;6.090;2023-04-25T05:29:02;8.13;;;1.00;;
75691;SDS011;64307;52.508;6.090;2023-04-25T05:31:27;10.15;;;1.50;;
75691;SDS011;64307;52.508;6.090;2023-04-25T05:33:52;9.70;;;1.33;;
75691;SDS011;64307;52.508;6.090;2023-04-25T05:36:18;8.07;;;1.53;;
75691;SDS011;64307;52.508;6.090;2023-04-25T05:38:45;8.90;;;1.15;;
75691;SDS011;64307;52.508;6.090;2023-04-25T05:41:10;6.00;;;1.27;;
75691;SDS011;64307;52.508;6.090;2023-04-25T05:43:35;6.30;;;1.25;;
75691;SDS011;64307;52.508;6.090;2023-04-25T05:46:01;10.00;;;1.20;;
75691;SDS011;64307;52.508;6.090;2023-04-25T05:48:27;8.63;;;1.38;;
75691;SDS011;64307;52.508;6.090;2023-04-25T05:50:53;8.95;;;1.13;;
75691;SDS011;64307;52.508;6.090;2023-04-25T05:53:18;7.05;;;1.23;;
75691;SDS011;64307;52.508;6.090;2023-04-25T05:55:44;8.80;;;1.40;;
75691;SDS011;64307;52.508;6.090;2023-04-25T05:58:10;8.93;;;1.20;;
75691;SDS011;64307;52.508;6.090;2023-04-25T06:00:35;6.43;;;1.13;;
75691;SDS011;64307;52.508;6.090;2023-04-25T06:03:00;6.45;;;0.75;;
75691;SDS011;64307;52.508;6.090;2023-04-25T06:05:26;7.00;;;0.82;;
75691;SDS011;64307;52.508;6.090;2023-04-25T06:07:51;6.60;;;0.65;;
75691;SDS011;64307;52.508;6.090;2023-04-25T06:10:17;8.50;;;0.70;;
75691;SDS011;64307;52.508;6.090;2023-04-25T06:12:42;3.97;;;0.70;;
75691;SDS011;64307;52.508;6.090;2023-04-25T06:15:08;9.18;;;0.88;;
75691;SDS011;64307;52.508;6.090;2023-04-25T06:17:33;8.48;;;0.82;;
75691;SDS011;64307;52.508;6.090;2023-04-25T06:19:59;9.63;;;1.10;;
75691;SDS011;64307;52.508;6.090;2023-04-25T06:22:24;11.30;;;1.57;;
75691;SDS011;64307;52.508;6.090;2023-04-25T06:24:49;5.78;;;0.88;;
75691;SDS011;64307;52.508;6.090;2023-04-25T06:27:14;5.65;;;0.90;;
75691;SDS011;64307;52.508;6.090;2023-04-25T06:29:40;8.27;;;1.10;;
75691;SDS011;64307;52.508;6.090;2023-04-25T06:32:05;8.48;;;1.10;;
75691;SDS011;64307;52.508;6.090;2023-04-25T06:36:55;5.80;;;0.50;;
75691;SDS011;64307;52.508;6.090;2023-04-25T06:41:48;8.02;;;0.90;;
75691;SDS011;64307;52.508;6.090;2023-04-25T06:44:14;9.75;;;1.42;;
75691;SDS011;64307;52.508;6.090;2023-04-25T06:49:05;6.43;;;0.70;;
75691;SDS011;64307;52.508;6.090;2023-04-25T06:53:56;10.32;;;1.02;;
75691;SDS011;64307;52.508;6.090;2023-04-25T06:58:47;7.97;;;0.90;;
75691;SDS011;64307;52.508;6.090;2023-04-25T07:03:37;9.33;;;0.93;;
75691;SDS011;64307;52.508;6.090;2023-04-25T07:08:28;7.35;;;1.20;;
75691;SDS011;64307;52.508;6.090;2023-04-25T07:10:54;6.90;;;0.73;;
75691;SDS011;64307;52.508;6.090;2023-04-25T07:13:20;9.43;;;1.02;;
75691;SDS011;64307;52.508;6.090;2023-04-25T07:18:12;4.70;;;0.52;;
75691;SDS011;64307;52.508;6.090;2023-04-25T07:23:02;4.13;;;0.70;;
75691;SDS011;64307;52.508;6.090;2023-04-25T07:25:28;4.50;;;0.77;;
75691;SDS011;64307;52.508;6.090;2023-04-25T07:27:53;4.45;;;0.75;;
75691;SDS011;64307;52.508;6.090;2023-04-25T07:30:19;2.17;;;0.55;;
75691;SDS011;64307;52.508;6.090;2023-04-25T07:32:44;6.60;;;0.80;;
75691;SDS011;64307;52.508;6.090;2023-04-25T07:37:35;2.40;;;0.73;;
75691;SDS011;64307;52.508;6.090;2023-04-25T07:42:28;4.85;;;0.82;;
75691;SDS011;64307;52.508;6.090;2023-04-25T07:44:54;4.45;;;0.55;;
75691;SDS011;64307;52.508;6.090;2023-04-25T07:47:19;10.47;;;1.07;;
75691;SDS011;64307;52.508;6.090;2023-04-25T07:49:44;4.07;;;0.90;;
75691;SDS011;64307;52.508;6.090;2023-04-25T07:52:10;4.18;;;0.88;;
75691;SDS011;64307;52.508;6.090;2023-04-25T07:54:35;4.82;;;0.65;;
75691;SDS011;64307;52.508;6.090;2023-04-25T07:57:00;4.37;;;1.00;;
75691;SDS011;64307;52.508;6.090;2023-04-25T07:59:27;5.18;;;0.73;;
75691;SDS011;64307;52.508;6.090;2023-04-25T08:01:52;3.75;;;0.75;;
75691;SDS011;64307;52.508;6.090;2023-04-25T08:04:18;4.10;;;0.80;;
75691;SDS011;64307;52.508;6.090;2023-04-25T08:06:43;5.07;;;1.00;;
75691;SDS011;64307;52.508;6.090;2023-04-25T08:09:09;5.63;;;0.90;;
75691;SDS011;64307;52.508;6.090;2023-04-25T08:11:35;4.95;;;0.95;;
75691;SDS011;64307;52.508;6.090;2023-04-25T08:14:01;9.00;;;0.80;;
75691;SDS011;64307;52.508;6.090;2023-04-25T08:16:27;7.68;;;1.30;;
75691;SDS011;64307;52.508;6.090;2023-04-25T08:18:53;6.15;;;0.88;;
75691;SDS011;64307;52.508;6.090;2023-04-25T08:21:18;7.32;;;0.93;;
75691;SDS011;64307;52.508;6.090;2023-04-25T08:23:44;6.50;;;1.23;;
75691;SDS011;64307;52.508;6.090;2023-04-25T08:26:09;3.85;;;0.82;;
75691;SDS011;64307;52.508;6.090;2023-04-25T08:28:35;6.80;;;0.90;;
75691;SDS011;64307;52.508;6.090;2023-04-25T08:31:00;4.65;;;0.73;;
75691;SDS011;64307;52.508;6.090;2023-04-25T08:33:28;3.75;;;0.40;;
75691;SDS011;64307;52.508;6.090;2023-04-25T08:35:55;4.47;;;0.60;;
75691;SDS011;64307;52.508;6.090;2023-04-25T08:38:20;4.47;;;1.25;;
75691;SDS011;64307;52.508;6.090;2023-04-25T08:40:46;4.03;;;0.80;;
75691;SDS011;64307;52.508;6.090;2023-04-25T08:43:15;7.40;;;0.70;;
75691;SDS011;64307;52.508;6.090;2023-04-25T08:45:43;2.75;;;0.63;;
75691;SDS011;64307;52.508;6.090;2023-04-25T08:48:13;3.17;;;0.65;;
75691;SDS011;64307;52.508;6.090;2023-04-25T08:50:50;4.35;;;0.73;;
75691;SDS011;64307;52.508;6.090;2023-04-25T08:53:20;6.15;;;0.43;;
75691;SDS011;64307;52.508;6.090;2023-04-25T08:55:50;6.25;;;1.17;;
75691;SDS011;64307;52.508;6.090;2023-04-25T08:58:16;4.60;;;0.47;;
75691;SDS011;64307;52.508;6.090;2023-04-25T09:00:43;3.60;;;0.40;;
75691;SDS011;64307;52.508;6.090;2023-04-25T09:03:10;4.43;;;0.95;;
75691;SDS011;64307;52.508;6.090;2023-04-25T09:05:36;7.72;;;1.13;;
75691;SDS011;64307;52.508;6.090;2023-04-25T09:08:01;7.63;;;0.63;;
75691;SDS011;64307;52.508;6.090;2023-04-25T09:10:28;7.20;;;0.77;;
75691;SDS011;64307;52.508;6.090;2023-04-25T09:13:06;3.92;;;0.82;;
75691;SDS011;64307;52.508;6.090;2023-04-25T09:15:49;4.13;;;0.43;;
75691;SDS011;64307;52.508;6.090;2023-04-25T09:18:26;2.55;;;0.40;;
75691;SDS011;64307;52.508;6.090;2023-04-25T09:20:54;8.93;;;1.25;;
75691;SDS011;64307;52.508;6.090;2023-04-25T09:23:21;4.75;;;1.00;;
75691;SDS011;64307;52.508;6.090;2023-04-25T09:25:48;4.65;;;0.75;;
75691;SDS011;64307;52.508;6.090;2023-04-25T09:28:15;7.15;;;1.50;;
75691;SDS011;64307;52.508;6.090;2023-04-25T09:30:41;6.50;;;0.98;;
75691;SDS011;64307;52.508;6.090;2023-04-25T09:33:07;4.00;;;0.68;;
75691;SDS011;64307;52.508;6.090;2023-04-25T09:35:39;3.78;;;0.73;;
75691;SDS011;64307;52.508;6.090;2023-04-25T09:38:14;7.97;;;0.80;;
75691;SDS011;64307;52.508;6.090;2023-04-25T09:40:40;4.93;;;0.68;;
75691;SDS011;64307;52.508;6.090;2023-04-25T09:43:20;5.85;;;0.68;;
75691;SDS011;64307;52.508;6.090;2023-04-25T09:45:47;10.25;;;0.77;;
75691;SDS011;64307;52.508;6.090;2023-04-25T09:48:19;6.28;;;0.77;;
75691;SDS011;64307;52.508;6.090;2023-04-25T09:53:28;4.38;;;0.65;;
75691;SDS011;64307;52.508;6.090;2023-04-25T09:55:53;5.20;;;0.88;;
75691;SDS011;64307;52.508;6.090;2023-04-25T09:58:21;4.63;;;0.82;;
75691;SDS011;64307;52.508;6.090;2023-04-25T10:00:49;4.30;;;1.02;;
75691;SDS011;64307;52.508;6.090;2023-04-25T10:03:19;6.13;;;1.08;;
75691;SDS011;64307;52.508;6.090;2023-04-25T10:05:48;8.45;;;1.02;;
75691;SDS011;64307;52.508;6.090;2023-04-25T10:08:15;6.18;;;0.98;;
75691;SDS011;64307;52.508;6.090;2023-04-25T10:10:41;5.45;;;0.93;;
75691;SDS011;64307;52.508;6.090;2023-04-25T10:13:07;3.95;;;0.80;;
75691;SDS011;64307;52.508;6.090;2023-04-25T10:15:36;4.80;;;0.65;;
75691;SDS011;64307;52.508;6.090;2023-04-25T10:18:03;7.95;;;1.13;;
75691;SDS011;64307;52.508;6.090;2023-04-25T10:20:31;4.25;;;0.88;;
75691;SDS011;64307;52.508;6.090;2023-04-25T10:23:03;3.72;;;0.77;;
75691;SDS011;64307;52.508;6.090;2023-04-25T10:25:38;4.85;;;1.23;;
75691;SDS011;64307;52.508;6.090;2023-04-25T10:28:05;4.88;;;0.77;;
75691;SDS011;64307;52.508;6.090;2023-04-25T10:30:31;4.53;;;0.80;;
75691;SDS011;64307;52.508;6.090;2023-04-25T10:32:59;5.53;;;1.00;;
75691;SDS011;64307;52.508;6.090;2023-04-25T10:35:28;6.07;;;0.50;;
75691;SDS011;64307;52.508;6.090;2023-04-25T10:37:59;4.05;;;0.85;;
75691;SDS011;64307;52.508;6.090;2023-04-25T10:40:28;4.72;;;0.57;;
75691;SDS011;64307;52.508;6.090;2023-04-25T10:42:54;5.60;;;1.08;;
75691;SDS011;64307;52.508;6.090;2023-04-25T10:45:22;6.28;;;0.68;;
75691;SDS011;64307;52.508;6.090;2023-04-25T10:47:48;3.85;;;0.52;;
75691;SDS011;64307;52.508;6.090;2023-04-25T10:50:16;4.47;;;0.60;;
75691;SDS011;64307;52.508;6.090;2023-04-25T10:52:42;4.47;;;0.90;;
75691;SDS011;64307;52.508;6.090;2023-04-25T10:55:07;5.43;;;0.70;;
75691;SDS011;64307;52.508;6.090;2023-04-25T10:57:39;4.70;;;0.52;;
75691;SDS011;64307;52.508;6.090;2023-04-25T11:00:08;6.65;;;0.90;;
75691;SDS011;64307;52.508;6.090;2023-04-25T11:02:36;4.05;;;0.50;;
75691;SDS011;64307;52.508;6.090;2023-04-25T11:05:10;4.28;;;0.35;;
75691;SDS011;64307;52.508;6.090;2023-04-25T11:07:51;5.65;;;0.75;;
75691;SDS011;64307;52.508;6.090;2023-04-25T11:12:45;4.93;;;0.90;;
75691;SDS011;64307;52.508;6.090;2023-04-25T11:15:11;6.15;;;0.47;;
75691;SDS011;64307;52.508;6.090;2023-04-25T11:17:37;5.20;;;0.50;;
75691;SDS011;64307;52.508;6.090;2023-04-25T11:20:04;6.38;;;0.82;;
75691;SDS011;64307;52.508;6.090;2023-04-25T11:22:34;9.52;;;0.80;;
75691;SDS011;64307;52.508;6.090;2023-04-25T11:25:07;6.20;;;1.08;;
75691;SDS011;64307;52.508;6.090;2023-04-25T11:27:33;4.50;;;0.77;;
75691;SDS011;64307;52.508;6.090;2023-04-25T11:30:09;3.55;;;1.13;;
75691;SDS011;64307;52.508;6.090;2023-04-25T11:32:40;2.42;;;0.68;;
75691;SDS011;64307;52.508;6.090;2023-04-25T11:35:08;5.22;;;0.40;;
75691;SDS011;64307;52.508;6.090;2023-04-25T11:37:38;3.63;;;0.93;;
75691;SDS011;64307;52.508;6.090;2023-04-25T11:40:11;3.10;;;0.57;;
75691;SDS011;64307;52.508;6.090;2023-04-25T11:42:44;5.95;;;1.02;;
75691;SDS011;64307;52.508;6.090;2023-04-25T11:45:10;5.07;;;0.80;;
75691;SDS011;64307;52.508;6.090;2023-04-25T11:47:36;4.97;;;0.50;;
75691;SDS011;64307;52.508;6.090;2023-04-25T11:52:35;5.53;;;0.85;;
75691;SDS011;64307;52.508;6.090;2023-04-25T11:55:04;4.07;;;0.73;;
75691;SDS011;64307;52.508;6.090;2023-04-25T11:57:33;11.45;;;2.00;;
75691;SDS011;64307;52.508;6.090;2023-04-25T12:00:31;6.07;;;0.80;;
75691;SDS011;64307;52.508;6.090;2023-04-25T12:02:53;6.13;;;0.93;;
75691;SDS011;64307;52.508;6.090;2023-04-25T12:05:23;5.10;;;0.80;;
75691;SDS011;64307;52.508;6.090;2023-04-25T12:07:50;2.70;;;0.55;;
75691;SDS011;64307;52.508;6.090;2023-04-25T12:10:16;2.95;;;0.63;;
75691;SDS011;64307;52.508;6.090;2023-04-25T12:12:43;4.10;;;0.50;;
75691;SDS011;64307;52.508;6.090;2023-04-25T12:15:10;2.00;;;0.50;;
75691;SDS011;64307;52.508;6.090;2023-04-25T12:17:40;3.40;;;0.80;;
75691;SDS011;64307;52.508;6.090;2023-04-25T12:20:08;5.40;;;0.70;;
75691;SDS011;64307;52.508;6.090;2023-04-25T12:22:34;4.03;;;0.70;;
75691;SDS011;64307;52.508;6.090;2023-04-25T12:24:59;3.47;;;0.50;;
75691;SDS011;64307;52.508;6.090;2023-04-25T12:27:25;3.83;;;0.70;;
75691;SDS011;64307;52.508;6.090;2023-04-25T12:29:52;4.47;;;0.60;;
75691;SDS011;64307;52.508;6.090;2023-04-25T12:32:19;4.55;;;0.85;;
75691;SDS011;64307;52.508;6.090;2023-04-25T12:34:44;2.88;;;0.95;;
75691;SDS011;64307;52.508;6.090;2023-04-25T12:37:10;5.07;;;0.82;;
75691;SDS011;64307;52.508;6.090;2023-04-25T12:39:36;4.75;;;0.52;;
75691;SDS011;64307;52.508;6.090;2023-04-25T12:42:01;3.95;;;0.52;;
75691;SDS011;64307;52.508;6.090;2023-04-25T12:44:27;4.68;;;0.75;;
75691;SDS011;64307;52.508;6.090;2023-04-25T12:46:52;3.50;;;0.40;;
75691;SDS011;64307;52.508;6.090;2023-04-25T12:49:17;3.13;;;0.65;;
75691;SDS011;64307;52.508;6.090;2023-04-25T12:51:43;5.38;;;0.50;;
75691;SDS011;64307;52.508;6.090;2023-04-25T12:54:08;4.63;;;0.40;;
75691;SDS011;64307;52.508;6.090;2023-04-25T12:56:34;4.72;;;0.65;;
75691;SDS011;64307;52.508;6.090;2023-04-25T12:59:00;3.92;;;0.60;;
75691;SDS011;64307;52.508;6.090;2023-04-25T13:01:25;5.22;;;0.90;;
75691;SDS011;64307;52.508;6.090;2023-04-25T13:03:52;6.30;;;1.05;;
75691;SDS011;64307;52.508;6.090;2023-04-25T13:06:18;4.70;;;0.70;;
75691;SDS011;64307;52.508;6.090;2023-04-25T13:08:45;7.07;;;0.82;;
75691;SDS011;64307;52.508;6.090;2023-04-25T13:11:10;6.50;;;0.80;;
75691;SDS011;64307;52.508;6.090;2023-04-25T13:13:36;4.97;;;0.80;;
75691;SDS011;64307;52.508;6.090;2023-04-25T13:16:02;5.38;;;0.80;;
75691;SDS011;64307;52.508;6.090;2023-04-25T13:18:30;6.60;;;0.80;;
75691;SDS011;64307;52.508;6.090;2023-04-25T13:20:56;5.82;;;0.63;;
75691;SDS011;64307;52.508;6.090;2023-04-25T13:23:22;3.40;;;0.52;;
75691;SDS011;64307;52.508;6.090;2023-04-25T13:25:48;7.95;;;0.52;;
75691;SDS011;64307;52.508;6.090;2023-04-25T13:28:13;4.75;;;0.75;;
75691;SDS011;64307;52.508;6.090;2023-04-25T13:30:41;2.45;;;0.60;;
75691;SDS011;64307;52.508;6.090;2023-04-25T13:33:06;4.63;;;0.80;;
75691;SDS011;64307;52.508;6.090;2023-04-25T13:35:32;5.15;;;0.60;;
75691;SDS011;64307;52.508;6.090;2023-04-25T13:37:59;6.15;;;0.98;;
75691;SDS011;64307;52.508;6.090;2023-04-25T13:40:26;6.05;;;0.88;;
75691;SDS011;64307;52.508;6.090;2023-04-25T13:42:51;8.00;;;1.10;;
75691;SDS011;64307;52.508;6.090;2023-04-25T13:45:17;6.40;;;0.43;;
75691;SDS011;64307;52.508;6.090;2023-04-25T13:47:43;4.57;;;0.70;;
75691;SDS011;64307;52.508;6.090;2023-04-25T13:50:08;4.60;;;0.90;;
75691;SDS011;64307;52.508;6.090;2023-04-25T13:52:34;3.53;;;0.50;;
75691;SDS011;64307;52.508;6.090;2023-04-25T13:55:00;3.50;;;0.55;;
75691;SDS011;64307;52.508;6.090;2023-04-25T13:57:26;3.90;;;0.75;;
75691;SDS011;64307;52.508;6.090;2023-04-25T13:59:51;4.60;;;0.50;;
75691;SDS011;64307;52.508;6.090;2023-04-25T14:02:17;3.53;;;0.52;;
75691;SDS011;64307;52.508;6.090;2023-04-25T14:04:44;4.90;;;0.60;;
75691;SDS011;64307;52.508;6.090;2023-04-25T14:07:09;5.68;;;0.57;;
75691;SDS011;64307;52.508;6.090;2023-04-25T14:09:36;4.10;;;0.40;;
75691;SDS011;64307;52.508;6.090;2023-04-25T14:12:01;4.68;;;0.60;;
75691;SDS011;64307;52.508;6.090;2023-04-25T14:14:27;3.97;;;0.60;;
75691;SDS011;64307;52.508;6.090;2023-04-25T14:16:53;4.95;;;0.73;;
75691;SDS011;64307;52.508;6.090;2023-04-25T14:19:19;7.90;;;0.60;;
75691;SDS011;64307;52.508;6.090;2023-04-25T14:21:45;2.63;;;0.70;;
75691;SDS011;64307;52.508;6.090;2023-04-25T14:24:11;5.90;;;0.60;;
75691;SDS011;64307;52.508;6.090;2023-04-25T14:26:37;4.53;;;0.70;;
75691;SDS011;64307;52.508;6.090;2023-04-25T14:29:06;3.40;;;0.75;;
75691;SDS011;64307;52.508;6.090;2023-04-25T14:31:32;4.07;;;0.90;;
75691;SDS011;64307;52.508;6.090;2023-04-25T14:33:58;4.65;;;0.77;;
75691;SDS011;64307;52.508;6.090;2023-04-25T14:36:24;7.67;;;0.60;;
75691;SDS011;64307;52.508;6.090;2023-04-25T14:38:51;5.30;;;0.77;;
75691;SDS011;64307;52.508;6.090;2023-04-25T14:41:16;4.72;;;0.75;;
75691;SDS011;64307;52.508;6.090;2023-04-25T14:43:42;3.75;;;0.70;;
75691;SDS011;64307;52.508;6.090;2023-04-25T14:46:07;5.23;;;1.00;;
75691;SDS011;64307;52.508;6.090;2023-04-25T14:48:32;4.60;;;0.60;;
75691;SDS011;64307;52.508;6.090;2023-04-25T14:50:58;3.70;;;0.73;;
75691;SDS011;64307;52.508;6.090;2023-04-25T14:53:25;7.47;;;1.13;;
75691;SDS011;64307;52.508;6.090;2023-04-25T14:55:50;4.85;;;0.50;;
75691;SDS011;64307;52.508;6.090;2023-04-25T14:58:15;3.88;;;0.77;;
75691;SDS011;64307;52.508;6.090;2023-04-25T15:00:41;3.57;;;0.50;;
75691;SDS011;64307;52.508;6.090;2023-04-25T15:03:06;3.72;;;0.93;;
75691;SDS011;64307;52.508;6.090;2023-04-25T15:05:33;2.13;;;0.45;;
75691;SDS011;64307;52.508;6.090;2023-04-25T15:07:59;5.63;;;0.75;;
75691;SDS011;64307;52.508;6.090;2023-04-25T15:10:25;6.75;;;0.65;;
75691;SDS011;64307;52.508;6.090;2023-04-25T15:12:50;3.67;;;0.75;;
75691;SDS011;64307;52.508;6.090;2023-04-25T15:15:15;5.05;;;0.65;;
75691;SDS011;64307;52.508;6.090;2023-04-25T15:17:41;7.45;;;0.75;;